Time;durP1;ratioP1;P1;durP2;ratioP2;P2;SDS_P1;SDS_P2;PMS_P1;PMS_P2;Temp;Humidity;BMP_temperature;BMP_pressure;BME280_temperature;BME280_humidity;BME280_pressure;Samples;Min_cycle;Max_cycle;Signal;HPM_P1;HPM_P2
2024/03/18 00:03:27;;;;;;;6.70;2.80;;;;;;;0.96;100.00;101175.91;214341;1289;140130;-83
2024/03/18 00:08:27;;;;;;;7.90;2.90;;;;;;;0.84;100.00;101175.88;214122;1285;139867;-83
2024/03/18 00:13:28;;;;;;;8.30;3.30;;;;;;;0.73;100.00;101179.24;214758;1287;138551;-82
2024/03/18 00:18:29;;;;;;;9.70;3.10;;;;;;;0.64;100.00;101178.52;214298;1288;139359;-82
2024/03/18 00:23:30;;;;;;;10.70;3.20;;;;;;;0.56;100.00;101176.41;214547;1286;138647;-83
2024/03/18 00:28:32;;;;;;;6.00;2.80;;;;;;;0.51;100.00;101173.66;214512;1283;139401;-82
2024/03/18 00:33:32;;;;;;;7.50;2.50;;;;;;;0.45;100.00;101168.81;214998;1289;138789;-82
2024/03/18 00:38:33;;;;;;;5.70;2.40;;;;;;;0.40;100.00;101169.05;214418;1289;139978;-82
2024/03/18 00:43:33;;;;;;;5.30;2.00;;;;;;;0.36;100.00;101172.61;214785;1283;138616;-82
2024/03/18 00:48:34;;;;;;;6.90;2.30;;;;;;;0.34;100.00;101170.31;214144;1287;139513;-83
2024/03/18 00:53:34;;;;;;;6.20;2.50;;;;;;;0.33;100.00;101173.31;214919;1283;138827;-82
2024/03/18 00:58:39;;;;;;;6.50;2.50;;;;;;;0.32;100.00;101170.46;214395;1289;139378;-81
2024/03/18 01:03:40;;;;;;;9.00;2.80;;;;;;;0.32;100.00;101162.39;214672;1287;138831;-81
2024/03/18 01:08:41;;;;;;;6.10;2.50;;;;;;;0.30;100.00;101156.67;213984;1289;139446;-81
2024/03/18 01:13:47;;;;;;;7.10;2.60;;;;;;;0.27;100.00;101150.81;214251;1290;138478;-82
2024/03/18 01:18:48;;;;;;;7.90;2.80;;;;;;;0.23;100.00;101151.96;213941;1283;139799;-81
2024/03/18 01:23:48;;;;;;;7.00;3.10;;;;;;;0.18;100.00;101151.10;214353;1284;139162;-82
2024/03/18 01:28:49;;;;;;;9.50;3.40;;;;;;;0.11;100.00;101147.73;213656;1286;139740;-82
2024/03/18 01:33:49;;;;;;;8.90;3.20;;;;;;;0.04;100.00;101144.79;214082;1287;138463;-81
2024/03/18 01:38:50;;;;;;;9.10;3.00;;;;;;;-0.02;100.00;101142.60;213792;1285;139764;-82
2024/03/18 01:43:50;;;;;;;9.10;3.00;;;;;;;-0.11;100.00;101141.19;214025;1288;139595;-82
2024/03/18 01:48:51;;;;;;;9.00;3.00;;;;;;;-0.20;100.00;101139.95;213850;1285;139911;-81
2024/03/18 01:53:51;;;;;;;7.50;3.20;;;;;;;-0.28;100.00;101135.71;214155;1288;139727;-81
2024/03/18 01:58:56;;;;;;;8.00;3.00;;;;;;;-0.35;100.00;101135.48;213749;1288;140117;-81
2024/03/18 02:04:11;;;;;;;8.20;3.30;;;;;;;-0.43;100.00;101135.19;214137;1286;138863;-81
2024/03/18 02:09:12;;;;;;;8.90;3.00;;;;;;;-0.49;100.00;101138.05;213839;1283;140288;-83
2024/03/18 02:14:13;;;;;;;10.10;3.90;;;;;;;-0.55;100.00;101134.55;214234;1288;103044;-82
2024/03/18 02:19:14;;;;;;;9.60;3.70;;;;;;;-0.61;100.00;101131.80;213851;1285;139930;-81
2024/03/18 02:24:15;;;;;;;9.70;3.10;;;;;;;-0.67;100.00;101127.50;214232;1285;139106;-82
2024/03/18 02:29:15;;;;;;;12.10;3.40;;;;;;;-0.71;100.00;101128.17;213871;1283;140264;-82
2024/03/18 02:34:15;;;;;;;9.20;3.10;;;;;;;-0.74;100.00;101125.02;214266;1287;139002;-82
2024/03/18 02:39:16;;;;;;;8.90;3.60;;;;;;;-0.79;100.00;101116.36;213845;1288;140468;-82
2024/03/18 02:44:17;;;;;;;9.40;3.30;;;;;;;-0.83;100.00;101112.84;214262;1288;98009;-81
2024/03/18 02:49:17;;;;;;;7.70;2.90;;;;;;;-0.86;100.00;101111.36;213816;1288;140274;-81
2024/03/18 02:54:18;;;;;;;9.00;3.00;;;;;;;-0.90;100.00;101107.66;214652;1288;139074;-82
2024/03/18 02:59:18;;;;;;;9.20;2.70;;;;;;;-0.95;100.00;101107.77;213672;1283;139883;-82
2024/03/18 03:04:19;;;;;;;8.20;3.30;;;;;;;-0.99;100.00;101110.56;214508;1286;138907;-81
2024/03/18 03:09:20;;;;;;;9.80;2.90;;;;;;;-1.03;100.00;101110.44;213815;1286;139630;-82
2024/03/18 03:14:20;;;;;;;8.50;2.80;;;;;;;-1.05;100.00;101106.49;214984;1285;98105;-81
2024/03/18 03:19:21;;;;;;;13.80;3.10;;;;;;;-1.04;100.00;101102.57;213969;1283;139266;-81
2024/03/18 03:24:22;;;;;;;7.80;2.80;;;;;;;-1.04;100.00;101102.39;214299;1288;139586;-81
2024/03/18 03:29:22;;;;;;;5.70;2.40;;;;;;;-1.02;100.00;101106.60;214500;1288;139544;-81
2024/03/18 03:34:23;;;;;;;6.00;2.00;;;;;;;-0.98;100.00;101108.02;214690;1283;139037;-81
2024/03/18 03:39:24;;;;;;;7.90;2.50;;;;;;;-0.93;100.00;101104.67;214510;1288;138861;-81
2024/03/18 03:44:24;;;;;;;6.20;2.30;;;;;;;-0.87;100.00;101104.23;215496;1284;106731;-81
2024/03/18 03:49:28;;;;;;;8.20;2.80;;;;;;;-0.81;100.00;101106.94;214110;1283;139635;-81
2024/03/18 03:54:29;;;;;;;6.70;2.40;;;;;;;-0.74;100.00;101108.55;214595;1284;138757;-82
2024/03/18 03:59:29;;;;;;;7.90;2.80;;;;;;;-0.67;100.00;101110.63;215055;1285;139899;-83
2024/03/18 04:04:30;;;;;;;10.30;2.80;;;;;;;-0.61;100.00;101102.19;215678;1288;139094;-82
2024/03/18 04:09:30;;;;;;;8.30;2.60;;;;;;;-0.54;100.00;101099.77;215458;1283;139800;-81
2024/03/18 04:14:30;;;;;;;6.30;2.20;;;;;;;-0.47;100.00;101100.30;215972;1285;98095;-82
2024/03/18 04:19:31;;;;;;;6.30;2.40;;;;;;;-0.41;100.00;101099.64;213979;1288;139406;-82
2024/03/18 04:24:31;;;;;;;5.20;2.20;;;;;;;-0.35;100.00;101102.64;214589;1283;138781;-82
2024/03/18 04:29:32;;;;;;;4.80;1.80;;;;;;;-0.29;100.00;101099.33;214095;1285;139893;-83
2024/03/18 04:34:32;;;;;;;4.30;2.10;;;;;;;-0.24;100.00;101096.98;214818;1286;139015;-82
2024/03/18 04:39:33;;;;;;;3.30;1.90;;;;;;;-0.19;100.00;101096.23;215402;1285;139858;-82
2024/03/18 04:44:33;;;;;;;6.80;1.90;;;;;;;-0.14;100.00;101098.48;216220;1288;98181;-83
2024/03/18 04:49:34;;;;;;;10.70;2.00;;;;;;;-0.08;100.00;101098.69;215592;1283;140474;-82
2024/03/18 04:54:34;;;;;;;9.00;2.30;;;;;;;-0.03;100.00;101092.77;216218;1286;138855;-82
2024/03/18 04:59:36;;;;;;;5.50;1.80;;;;;;;0.02;100.00;101091.40;215658;1283;139778;-82
2024/03/18 05:04:36;;;;;;;4.20;1.50;;;;;;;0.08;100.00;101093.38;215480;1285;138513;-82
2024/03/18 05:09:37;;;;;;;3.80;1.50;;;;;;;0.13;100.00;101096.02;215230;1285;139117;-82
2024/03/18 05:14:38;;;;;;;7.10;2.00;;;;;;;0.17;100.00;101100.40;214374;1284;97971;-82
2024/03/18 05:19:39;;;;;;;4.40;1.70;;;;;;;0.20;100.00;101096.40;213633;1283;140266;-82
2024/03/18 05:24:43;;;;;;;7.00;1.80;;;;;;;0.24;100.00;101098.79;214307;1282;139185;-83
2024/03/18 05:29:44;;;;;;;10.00;2.00;;;;;;;0.26;100.00;101096.30;213746;1288;139658;-83
2024/03/18 05:34:45;;;;;;;4.10;1.40;;;;;;;0.31;100.00;101098.79;214971;1285;138693;-82
2024/03/18 05:39:46;;;;;;;5.20;1.80;;;;;;;0.34;100.00;101096.20;214721;1288;139098;-82
2024/03/18 05:44:46;;;;;;;3.00;1.50;;;;;;;0.36;100.00;101096.48;214565;1288;97887;-82
2024/03/18 05:49:47;;;;;;;6.00;2.00;;;;;;;0.41;100.00;101091.98;213958;1285;138883;-82
2024/03/18 05:54:48;;;;;;;4.80;1.80;;;;;;;0.46;100.00;101094.83;214855;1283;138433;-83
2024/03/18 05:59:49;;;;;;;6.40;1.70;;;;;;;0.50;100.00;101097.86;215042;1285;139427;-82
2024/03/18 06:04:49;;;;;;;4.80;1.70;;;;;;;0.55;100.00;101093.98;214229;1283;139158;-84
2024/03/18 06:09:50;;;;;;;6.20;2.30;;;;;;;0.60;100.00;101094.77;214022;1288;139553;-83
2024/03/18 06:14:50;;;;;;;8.40;2.10;;;;;;;0.64;100.00;101092.80;214961;1288;98041;-83
2024/03/18 06:19:57;;;;;;;8.30;1.70;;;;;;;0.70;100.00;101094.02;214205;1283;139177;-83
2024/03/18 06:30:17;;;;;;;5.80;1.80;;;;;;;0.83;100.00;101092.12;213570;1283;140453;-85
2024/03/18 06:35:18;;;;;;;7.60;2.00;;;;;;;0.90;100.00;101089.13;214679;1283;138467;-84
2024/03/18 06:40:19;;;;;;;5.00;2.10;;;;;;;0.96;100.00;101085.83;214255;1286;139563;-84
2024/03/18 06:45:19;;;;;;;4.30;1.80;;;;;;;1.01;100.00;101090.84;214304;1284;138631;-84
2024/03/18 06:50:20;;;;;;;8.20;2.10;;;;;;;1.09;100.00;101092.38;213888;1288;140913;-83
2024/03/18 06:55:21;;;;;;;6.80;1.90;;;;;;;1.16;100.00;101092.45;214320;1285;138432;-83
2024/03/18 07:00:23;;;;;;;6.60;1.70;;;;;;;1.22;100.00;101092.85;214901;1283;139634;-84
2024/03/18 07:05:24;;;;;;;7.80;2.40;;;;;;;1.28;100.00;101095.45;214943;1284;138622;-84
2024/03/18 07:10:25;;;;;;;11.30;2.90;;;;;;;1.33;100.00;101091.59;215040;1283;140208;-83
2024/03/18 07:15:26;;;;;;;6.40;2.60;;;;;;;1.39;100.00;101092.48;215693;1287;138751;-84
2024/03/18 07:20:26;;;;;;;6.00;2.30;;;;;;;1.47;100.00;101094.86;215667;1285;139017;-84
2024/03/18 07:25:26;;;;;;;6.30;1.80;;;;;;;1.55;100.00;101093.95;215569;1285;138355;-84
2024/03/18 07:30:27;;;;;;;4.80;2.00;;;;;;;1.62;100.00;101091.04;215223;1283;139295;-84
2024/03/18 07:35:27;;;;;;;5.70;1.80;;;;;;;1.68;100.00;101088.10;214735;1283;138489;-84
2024/03/18 07:40:28;;;;;;;5.10;1.50;;;;;;;1.71;100.00;101088.13;214093;1285;139403;-83
2024/03/18 07:45:29;;;;;;;6.00;2.00;;;;;;;1.76;100.00;101087.16;214706;1286;138488;-84
2024/03/18 07:50:33;;;;;;;3.90;1.60;;;;;;;1.81;100.00;101090.92;213981;1283;139378;-84
2024/03/18 07:55:34;;;;;;;7.90;2.10;;;;;;;1.88;100.00;101095.07;214336;1288;138521;-84
2024/03/18 08:00:34;;;;;;;8.60;2.20;;;;;;;1.93;100.00;101093.65;213825;1283;139231;-84
2024/03/18 08:05:35;;;;;;;5.20;1.70;;;;;;;2.06;100.00;101087.89;217000;1288;138498;-85
2024/03/18 08:10:36;;;;;;;5.30;1.60;;;;;;;2.18;100.00;101086.20;215121;1286;139160;-83
2024/03/18 08:15:38;;;;;;;5.40;1.30;;;;;;;2.30;100.00;101090.94;214678;1285;139340;-83
2024/03/18 08:20:39;;;;;;;4.20;1.50;;;;;;;2.39;99.60;101090.61;214169;1283;139269;-83
2024/03/18 08:25:39;;;;;;;4.60;1.40;;;;;;;2.43;99.97;101082.14;214569;1285;138641;-83
2024/03/18 08:30:40;;;;;;;5.20;1.30;;;;;;;2.61;100.00;101077.55;213867;1283;139014;-83
2024/03/18 08:35:40;;;;;;;4.50;1.50;;;;;;;2.73;98.97;101075.73;214057;1285;139170;-84
2024/03/18 08:40:41;;;;;;;2.00;1.00;;;;;;;2.83;99.25;101080.76;213801;1284;139302;-84
2024/03/18 08:45:50;;;;;;;3.80;1.40;;;;;;;2.97;99.03;101080.79;214258;1288;138415;-84
2024/03/18 08:50:51;;;;;;;5.70;1.50;;;;;;;3.07;98.45;101076.65;214013;1288;138907;-84
2024/03/18 08:55:51;;;;;;;3.70;1.30;;;;;;;3.17;97.98;101076.92;214389;1285;138995;-84
2024/03/18 09:00:54;;;;;;;2.70;1.30;;;;;;;3.24;97.50;101078.50;213675;1285;138839;-84
2024/03/18 09:05:55;;;;;;;2.60;1.30;;;;;;;3.31;97.56;101076.45;215400;1288;139056;-84
2024/03/18 09:10:56;;;;;;;6.60;1.90;;;;;;;3.38;96.93;101074.16;213724;1288;139857;-85
2024/03/18 09:15:57;;;;;;;7.30;2.10;;;;;;;3.43;97.35;101080.52;214388;1283;138681;-85
2024/03/18 09:20:57;;;;;;;6.60;1.90;;;;;;;3.55;96.85;101075.95;213944;1285;138027;-84
2024/03/18 09:25:58;;;;;;;6.10;1.90;;;;;;;3.50;95.29;101076.58;214399;1285;139349;-85
2024/03/18 09:31:03;;;;;;;3.20;1.60;;;;;;;3.57;97.19;101075.06;213918;1285;139510;-83
2024/03/18 09:36:04;;;;;;;4.40;1.90;;;;;;;3.72;96.29;101069.52;214448;1282;138512;-84
2024/03/18 09:41:06;;;;;;;6.30;1.80;;;;;;;3.76;94.54;101063.31;213904;1287;139114;-84
2024/03/18 09:46:09;;;;;;;7.20;1.90;;;;;;;3.82;94.75;101063.05;214244;1283;139902;-84
2024/03/18 09:51:17;;;;;;;6.10;1.90;;;;;;;3.89;95.67;101054.77;213959;1283;138764;-84
2024/03/18 09:56:21;;;;;;;10.20;1.70;;;;;;;4.07;95.46;101054.44;214442;1285;268840;-83
2024/03/18 10:01:21;;;;;;;5.10;1.60;;;;;;;4.13;93.27;101051.59;214294;1284;153041;-84
2024/03/18 10:06:25;;;;;;;4.90;1.40;;;;;;;4.29;94.69;101047.86;214659;1287;144512;-84
2024/03/18 10:11:26;;;;;;;3.10;1.10;;;;;;;4.39;91.82;101044.30;214467;1286;138421;-84
2024/03/18 10:16:27;;;;;;;4.80;1.20;;;;;;;4.53;91.84;101044.55;213818;1288;140588;-83
2024/03/18 10:21:28;;;;;;;5.10;1.30;;;;;;;4.73;91.81;101048.13;214359;1282;138931;-83
2024/03/18 10:26:31;;;;;;;5.40;1.30;;;;;;;4.92;92.00;101045.36;213976;1282;139670;-84
2024/03/18 10:31:38;;;;;;;7.80;1.90;;;;;;;5.04;89.57;101042.26;214580;1284;138301;-84
2024/03/18 10:36:39;;;;;;;3.30;1.50;;;;;;;5.06;88.52;101035.54;213881;1286;140021;-84
2024/03/18 10:41:40;;;;;;;4.70;1.50;;;;;;;5.01;88.47;101031.90;214341;1283;139101;-84
2024/03/18 10:46:42;;;;;;;4.10;1.30;;;;;;;4.95;88.15;101028.30;213823;1283;140315;-84
2024/03/18 10:51:45;;;;;;;6.60;2.40;;;;;;;4.87;87.44;101026.11;214329;1285;139026;-84
2024/03/18 10:56:47;;;;;;;8.00;2.80;;;;;;;4.92;89.09;101023.07;213996;1285;139314;-84
2024/03/18 11:01:48;;;;;;;7.30;2.50;;;;;;;4.99;89.56;101023.30;214507;1285;139005;-84
2024/03/18 11:06:50;;;;;;;5.40;2.30;;;;;;;4.96;88.20;101021.13;214323;1285;140272;-84
2024/03/18 11:11:51;;;;;;;7.20;2.30;;;;;;;4.89;88.48;101020.31;215321;1286;138539;-85
2024/03/18 11:16:52;;;;;;;6.90;2.50;;;;;;;4.92;88.57;101019.82;213944;1286;139085;-85
2024/03/18 11:22:00;;;;;;;10.80;1.90;;;;;;;4.97;89.07;101017.23;214362;1285;138794;-84
2024/03/18 11:27:01;;;;;;;5.90;2.40;;;;;;;4.97;88.19;101016.90;213867;1286;139192;-85
2024/03/18 11:32:02;;;;;;;6.50;2.20;;;;;;;5.00;88.54;101015.50;214323;1283;138559;-85
2024/03/18 11:37:05;;;;;;;5.50;2.30;;;;;;;5.07;89.20;101015.65;213863;1285;138699;-83
2024/03/18 11:42:05;;;;;;;8.70;2.40;;;;;;;5.08;88.39;101013.04;214297;1282;138288;-83
2024/03/18 11:47:07;;;;;;;5.80;2.10;;;;;;;5.14;88.30;101015.55;214058;1285;140737;-84
2024/03/18 11:52:12;;;;;;;8.70;2.70;;;;;;;5.07;87.77;101015.48;214301;1286;138318;-84
2024/03/18 11:57:14;;;;;;;6.90;2.70;;;;;;;5.06;87.28;101014.65;213763;1283;139522;-83
2024/03/18 12:02:15;;;;;;;8.00;2.10;;;;;;;5.04;87.79;101011.67;214593;1287;105255;-84
2024/03/18 12:07:16;;;;;;;6.50;2.80;;;;;;;5.14;88.60;101002.45;214115;1288;140131;-83
2024/03/18 12:12:17;;;;;;;5.60;2.40;;;;;;;5.11;88.03;101004.17;215563;1287;137348;-84
2024/03/18 12:17:17;;;;;;;10.00;2.70;;;;;;;5.05;87.46;101008.45;213704;1285;139592;-83
2024/03/18 12:22:23;;;;;;;7.50;2.90;;;;;;;5.08;87.85;101005.02;214443;1285;138520;-84
2024/03/18 12:32:47;;;;;;;5.30;2.10;;;;;;;5.12;87.87;101005.02;214479;1285;112732;-82
2024/03/18 12:37:49;;;;;;;7.70;2.50;;;;;;;5.18;87.66;101001.06;213589;1285;139280;-83
2024/03/18 12:42:51;;;;;;;5.70;2.40;;;;;;;5.22;87.08;100999.95;214257;1285;139151;-83
2024/03/18 12:47:53;;;;;;;7.50;2.50;;;;;;;5.08;86.06;101002.98;214094;1285;139485;-84
2024/03/18 12:52:54;;;;;;;5.80;2.80;;;;;;;5.04;87.03;101003.88;214453;1288;138886;-84
2024/03/18 12:57:55;;;;;;;10.50;2.70;;;;;;;5.02;86.92;101002.73;215011;1286;139344;-83
2024/03/18 13:02:56;;;;;;;7.10;3.20;;;;;;;5.04;88.15;101001.23;216538;1285;97995;-84
2024/03/18 13:07:56;;;;;;;6.70;3.10;;;;;;;5.06;87.66;101005.45;215420;1288;139456;-84
2024/03/18 13:12:58;;;;;;;7.00;2.60;;;;;;;5.11;88.03;101008.25;216889;1283;138133;-83
2024/03/18 13:17:59;;;;;;;7.50;2.40;;;;;;;5.15;87.52;101009.48;215517;1285;139835;-84
2024/03/18 13:22:59;;;;;;;9.50;3.60;;;;;;;5.12;87.11;101004.46;214706;1285;138502;-83
2024/03/18 13:28:00;;;;;;;6.30;2.80;;;;;;;5.07;86.75;101002.61;213975;1284;139423;-84
2024/03/18 13:33:00;;;;;;;7.70;3.60;;;;;;;5.00;87.03;101001.92;214572;1284;98017;-84
2024/03/18 13:38:02;;;;;;;6.90;2.90;;;;;;;4.99;86.39;101001.74;213847;1285;138888;-83
2024/03/18 13:43:02;;;;;;;8.00;3.20;;;;;;;4.93;86.10;101000.70;214600;1285;138314;-83
2024/03/18 13:48:03;;;;;;;12.10;2.90;;;;;;;4.86;86.54;100998.52;213995;1284;138689;-84
2024/03/18 13:53:04;;;;;;;8.50;3.40;;;;;;;4.80;86.14;101003.11;214950;1285;138749;-84
2024/03/18 13:58:07;;;;;;;8.00;3.20;;;;;;;4.72;86.88;101000.50;214231;1285;139061;-84
2024/03/18 14:03:07;;;;;;;8.60;2.90;;;;;;;4.80;87.22;101002.09;214455;1287;138474;-84
2024/03/18 14:08:08;;;;;;;7.00;3.00;;;;;;;4.86;87.23;100997.83;214540;1285;139172;-84
2024/03/18 14:13:08;;;;;;;9.40;3.70;;;;;;;4.88;87.21;100995.48;215743;1283;138167;-83
2024/03/18 14:18:09;;;;;;;9.70;3.90;;;;;;;4.86;87.18;100991.61;214501;1282;138578;-84
2024/03/18 14:23:09;;;;;;;10.70;4.10;;;;;;;4.88;87.39;100994.71;215049;1285;138989;-83
2024/03/18 14:28:10;;;;;;;8.80;3.50;;;;;;;4.89;87.01;100991.32;214707;1283;138776;-83
2024/03/18 14:33:10;;;;;;;6.40;3.00;;;;;;;4.85;86.14;100986.86;214898;1285;138444;-83
2024/03/18 14:38:11;;;;;;;5.90;2.80;;;;;;;4.82;86.14;100987.19;213995;1286;139799;-83
2024/03/18 14:43:11;;;;;;;11.10;3.10;;;;;;;4.78;85.48;100987.74;214683;1285;138233;-84
2024/03/18 14:48:13;;;;;;;9.10;3.60;;;;;;;4.69;84.55;100987.73;214084;1288;139978;-83
2024/03/18 14:53:14;;;;;;;8.30;4.00;;;;;;;4.66;86.01;100994.28;214485;1288;138327;-84
2024/03/18 14:58:14;;;;;;;14.80;4.60;;;;;;;4.66;86.08;100995.63;213664;1288;140265;-84
2024/03/18 15:03:15;;;;;;;10.60;5.70;;;;;;;4.65;86.57;100993.47;214564;1285;138692;-84
2024/03/18 15:08:16;;;;;;;7.70;4.60;;;;;;;4.57;86.50;100989.77;213878;1287;140069;-84
2024/03/18 15:13:18;;;;;;;8.90;4.20;;;;;;;4.49;86.98;100994.73;214533;1285;138469;-85
2024/03/18 15:18:18;;;;;;;11.80;3.40;;;;;;;4.46;86.88;100993.48;214761;1284;140447;-85
2024/03/18 15:23:27;;;;;;;5.50;2.80;;;;;;;4.47;87.65;100986.79;214191;1288;139307;-84
2024/03/18 15:28:28;;;;;;;9.00;3.50;;;;;;;4.47;87.66;100991.37;213967;1286;139750;-84
2024/03/18 15:33:28;;;;;;;11.40;7.00;;;;;;;4.47;87.35;100994.70;214334;1288;138529;-85
2024/03/18 15:38:29;;;;;;;11.90;4.90;;;;;;;4.38;87.78;100994.45;214402;1285;139734;-84
2024/03/18 15:43:30;;;;;;;11.10;6.40;;;;;;;4.33;87.58;100993.20;214659;1286;138336;-84
2024/03/18 15:48:31;;;;;;;11.60;5.00;;;;;;;4.19;87.97;100991.58;214063;1285;139579;-84
2024/03/18 15:53:35;;;;;;;15.50;5.30;;;;;;;4.12;88.01;100985.58;214463;1288;138550;-84
2024/03/18 15:58:36;;;;;;;14.00;5.80;;;;;;;4.06;88.25;100989.00;214290;1283;139742;-84
2024/03/18 16:03:37;;;;;;;10.10;3.80;;;;;;;4.06;89.07;100987.27;214568;1283;138887;-84
2024/03/18 16:08:37;;;;;;;10.60;4.30;;;;;;;4.06;88.92;100992.22;214711;1286;139858;-84
2024/03/18 16:13:38;;;;;;;9.90;4.30;;;;;;;4.04;89.38;101000.86;215923;1285;139606;-84
2024/03/18 16:18:38;;;;;;;8.40;3.90;;;;;;;4.00;89.03;100999.09;216080;1288;140715;-84
2024/03/18 16:23:38;;;;;;;12.90;5.30;;;;;;;3.95;89.44;101007.05;215499;1288;138744;-83
2024/03/18 16:28:40;;;;;;;29.10;14.80;;;;;;;3.99;90.50;101010.46;214874;1285;140780;-84
2024/03/18 16:33:40;;;;;;;12.20;4.60;;;;;;;3.99;90.34;101010.34;215578;1285;138611;-83
2024/03/18 16:38:41;;;;;;;9.00;4.00;;;;;;;3.90;89.70;101010.08;215218;1288;138986;-83
2024/03/18 16:43:41;;;;;;;8.30;4.00;;;;;;;3.80;89.28;101018.60;214342;1285;138690;-83
2024/03/18 16:48:42;;;;;;;11.30;7.00;;;;;;;3.72;89.94;101023.05;214564;1285;139195;-83
2024/03/18 16:53:42;;;;;;;16.70;9.30;;;;;;;3.68;90.35;101023.49;215032;1288;138524;-82
2024/03/18 16:58:43;;;;;;;11.80;5.90;;;;;;;3.62;90.52;101029.20;214212;1288;139652;-82
2024/03/18 17:03:44;;;;;;;16.70;7.20;;;;;;;3.60;91.20;101036.23;215682;1283;138893;-83
2024/03/18 17:08:44;;;;;;;14.10;6.80;;;;;;;3.58;91.35;101034.13;213850;1288;139842;-84
2024/03/18 17:13:45;;;;;;;15.40;6.70;;;;;;;3.53;91.49;101038.62;214472;1288;138360;-84
2024/03/18 17:18:45;;;;;;;41.20;18.00;;;;;;;3.49;91.89;101045.27;215607;1285;138631;-83
2024/03/18 17:23:46;;;;;;;20.90;10.20;;;;;;;3.45;92.31;101049.18;214550;1283;139109;-83
2024/03/18 17:28:46;;;;;;;15.00;6.10;;;;;;;3.41;92.49;101049.85;214082;1283;139773;-83
2024/03/18 17:33:47;;;;;;;17.80;7.40;;;;;;;3.36;92.35;101050.08;214188;1288;139326;-85
2024/03/18 17:38:48;;;;;;;18.50;8.00;;;;;;;3.31;92.89;101056.43;213817;1288;139223;-85
2024/03/18 17:43:48;;;;;;;39.10;18.00;;;;;;;3.28;92.82;101064.23;214579;1288;138322;-85
2024/03/18 17:48:49;;;;;;;22.90;11.70;;;;;;;3.24;92.87;101067.82;214703;1285;139302;-85
2024/03/18 17:53:49;;;;;;;15.10;8.40;;;;;;;3.19;93.10;101076.01;215109;1285;138781;-85
2024/03/18 17:58:50;;;;;;;18.80;9.80;;;;;;;3.16;93.54;101077.17;214394;1283;140422;-85
2024/03/18 18:03:50;;;;;;;21.10;10.40;;;;;;;3.14;93.74;101081.46;215224;1288;138555;-86
2024/03/18 18:08:51;;;;;;;26.50;13.10;;;;;;;3.14;94.03;101083.23;213964;1288;139565;-85
2024/03/18 18:13:51;;;;;;;35.10;17.20;;;;;;;3.12;94.31;101088.27;214196;1288;139083;-85
2024/03/18 18:18:52;;;;;;;26.30;11.80;;;;;;;3.08;94.30;101091.76;214706;1288;139698;-85
2024/03/18 18:23:54;;;;;;;20.50;10.10;;;;;;;3.03;94.55;101092.85;214964;1285;140123;-85
2024/03/18 18:28:55;;;;;;;19.20;9.20;;;;;;;3.01;94.80;101102.15;213400;1288;139492;-85
2024/03/18 18:33:55;;;;;;;15.90;8.50;;;;;;;3.00;95.13;101105.05;214290;1288;139177;-86
2024/03/18 18:38:56;;;;;;;26.40;11.90;;;;;;;3.00;95.34;101109.75;213925;1289;139667;-85
2024/03/18 18:44:01;;;;;;;30.00;13.80;;;;;;;2.95;96.13;101108.56;214213;1288;138554;-85
2024/03/18 18:49:01;;;;;;;31.00;12.00;;;;;;;2.94;96.08;101108.10;213811;1286;139601;-86
2024/03/18 18:54:01;;;;;;;28.60;13.50;;;;;;;2.92;96.23;101110.49;214395;1286;139125;-85
2024/03/18 18:59:03;;;;;;;27.50;11.90;;;;;;;2.89;96.61;101117.81;214450;1286;139711;-85
2024/03/18 19:04:03;;;;;;;20.50;10.10;;;;;;;2.89;97.18;101116.88;214088;1285;139402;-84
2024/03/18 19:09:04;;;;;;;22.80;11.90;;;;;;;2.87;96.67;101119.48;215128;1286;139515;-85
2024/03/18 19:14:04;;;;;;;29.40;13.40;;;;;;;2.82;96.78;101120.36;215045;1283;139381;-84
2024/03/18 19:19:06;;;;;;;22.60;12.00;;;;;;;2.81;97.57;101119.27;215106;1286;139484;-84
2024/03/18 19:24:07;;;;;;;24.00;11.00;;;;;;;2.78;97.58;101123.53;216314;1285;138868;-85
2024/03/18 19:29:07;;;;;;;22.20;11.20;;;;;;;2.79;98.76;101128.63;214379;1286;140050;-85
2024/03/18 19:34:09;;;;;;;27.70;13.80;;;;;;;2.79;98.34;101131.04;214572;1288;138813;-85
2024/03/18 19:39:11;;;;;;;47.60;18.40;;;;;;;2.79;97.95;101129.84;213769;1297;140338;-85
2024/03/18 19:44:17;;;;;;;33.60;14.10;;;;;;;2.76;98.29;101127.35;214150;1288;106717;-85
2024/03/18 19:49:18;;;;;;;29.60;12.40;;;;;;;2.75;98.63;101124.60;213905;1282;139672;-85
2024/03/18 19:54:18;;;;;;;31.10;15.90;;;;;;;2.74;98.54;101121.65;214325;1283;138893;-85
2024/03/18 19:59:19;;;;;;;36.40;23.10;;;;;;;2.72;98.88;101123.04;213611;1285;139805;-85
2024/03/18 20:04:20;;;;;;;24.40;11.20;;;;;;;2.69;98.56;101120.56;214183;1289;138772;-85
2024/03/18 20:09:20;;;;;;;25.20;10.50;;;;;;;2.67;98.74;101123.92;213618;1283;139833;-84
2024/03/18 20:14:21;;;;;;;23.70;11.10;;;;;;;2.66;98.80;101123.64;214273;1282;98007;-84
2024/03/18 20:19:22;;;;;;;23.00;9.70;;;;;;;2.63;98.94;101125.71;213810;1284;140478;-84
2024/03/18 20:24:23;;;;;;;28.50;11.80;;;;;;;2.63;99.15;101127.34;215300;1288;138798;-86
2024/03/18 20:29:24;;;;;;;28.90;11.70;;;;;;;2.60;99.23;101120.23;214236;1283;140426;-84
2024/03/18 20:34:24;;;;;;;65.30;24.80;;;;;;;2.56;99.51;101124.23;214602;1287;138714;-84
2024/03/18 20:39:25;;;;;;;62.00;24.60;;;;;;;2.55;99.58;101122.80;213832;1285;140607;-84
2024/03/18 20:44:27;;;;;;;44.80;19.80;;;;;;;2.53;99.53;101126.60;214459;1289;98111;-84
2024/03/18 20:49:27;;;;;;;37.90;16.20;;;;;;;2.53;99.81;101125.95;213866;1288;139222;-83
2024/03/18 20:54:28;;;;;;;26.70;13.90;;;;;;;2.53;99.91;101132.89;214467;1288;138780;-84
2024/03/18 20:59:29;;;;;;;31.70;14.10;;;;;;;2.54;99.67;101131.56;213764;1284;139582;-83
2024/03/18 21:04:29;;;;;;;30.40;13.60;;;;;;;2.54;99.83;101135.80;215326;1288;138786;-84
2024/03/18 21:09:31;;;;;;;30.00;15.20;;;;;;;2.53;99.88;101136.44;215072;1288;139718;-84
2024/03/18 21:14:32;;;;;;;28.50;12.70;;;;;;;2.53;99.99;101141.15;215906;1288;98011;-83
2024/03/18 21:19:32;;;;;;;28.60;12.20;;;;;;;2.54;100.00;101140.96;214624;1287;139740;-85
2024/03/18 21:24:33;;;;;;;26.40;12.10;;;;;;;2.55;100.00;101143.62;215399;1285;139038;-84
2024/03/18 21:29:34;;;;;;;26.30;11.30;;;;;;;2.54;100.00;101142.27;214140;1288;140846;-85
2024/03/18 21:34:34;;;;;;;31.30;15.50;;;;;;;2.55;100.00;101141.38;215034;1286;139025;-84
2024/03/18 21:39:35;;;;;;;33.00;14.00;;;;;;;2.54;100.00;101143.64;214582;1283;141603;-85
2024/03/18 21:44:36;;;;;;;25.50;11.80;;;;;;;2.51;100.00;101142.13;214982;1283;99326;-84
2024/03/18 21:49:37;;;;;;;29.00;13.40;;;;;;;2.50;100.00;101144.15;214397;1283;139889;-83
2024/03/18 21:54:38;;;;;;;28.80;13.70;;;;;;;2.46;100.00;101148.52;214584;1285;495535;-84
2024/03/18 21:59:38;;;;;;;31.00;14.20;;;;;;;2.43;100.00;101152.20;214445;1283;140221;-85
2024/03/18 22:04:39;;;;;;;25.50;13.20;;;;;;;2.44;100.00;101148.42;214726;1288;139595;-85
2024/03/18 22:09:40;;;;;;;30.10;14.00;;;;;;;2.43;100.00;101152.14;214123;1285;140068;-85
2024/03/18 22:14:41;;;;;;;26.00;13.20;;;;;;;2.44;100.00;101154.66;215118;1288;99294;-85
2024/03/18 22:19:41;;;;;;;34.70;14.70;;;;;;;2.44;100.00;101154.58;214295;1285;140251;-86
2024/03/18 22:24:42;;;;;;;33.20;14.80;;;;;;;2.42;100.00;101156.41;215026;1288;138962;-84
2024/03/18 22:29:42;;;;;;;34.50;15.00;;;;;;;2.39;100.00;101153.91;215392;1283;139540;-84
2024/03/18 22:34:43;;;;;;;30.00;14.20;;;;;;;2.38;100.00;101161.77;215463;1285;139225;-84
2024/03/18 22:39:43;;;;;;;30.80;14.20;;;;;;;2.35;100.00;101169.15;214148;1283;140962;-84
2024/03/18 22:44:47;;;;;;;29.00;13.00;;;;;;;2.30;100.00;101165.36;215387;1283;100674;-84
2024/03/18 22:49:48;;;;;;;30.00;13.70;;;;;;;2.31;100.00;101167.13;214656;1287;141160;-84
2024/03/18 22:54:48;;;;;;;25.70;12.50;;;;;;;2.34;100.00;101172.98;215077;1287;139368;-83
2024/03/18 22:59:49;;;;;;;26.40;12.20;;;;;;;2.35;100.00;101166.66;214553;1283;139686;-84